sim
Sign-in with your pilot id or email,
or register
Callsign
Passwort

Schedule Details

Flight Number: OEO7687
Departure: Washington Dulles International Airport (KIAD) at 21:35
Arrival: Munich Airport (EDDM) at 05:55

Weather Information
Getting current METAR information for KIAD 192052Z VRB03KT 10SM SCT250 18/01 A3031 RMK AO2 SLP262 T01830006 56015 $
Getting current METAR information for EDDM 192050Z VRB01KT CAVOK 11/10 Q1018 NOSIG

Schedule Frequency

Route Map